createdAt,value
2023-01-18T00:03:33.407Z,25.03
2023-01-18T00:08:38.360Z,20.87
2023-01-18T00:13:40.515Z,22.00
2023-01-18T00:18:42.802Z,20.07
2023-01-18T00:23:44.413Z,26.10
2023-01-18T00:28:46.430Z,19.43
2023-01-18T00:33:50.460Z,23.10
2023-01-18T00:38:53.890Z,18.93
2023-01-18T00:43:55.924Z,19.93
2023-01-18T00:48:58.972Z,23.33
2023-01-18T00:54:00.625Z,21.20
2023-01-18T00:59:02.302Z,21.93
2023-01-18T01:04:22.517Z,17.00
2023-01-18T01:09:26.618Z,21.27
2023-01-18T01:14:46.740Z,20.50
2023-01-18T01:20:07.044Z,20.13
2023-01-18T01:25:27.169Z,20.57
2023-01-18T01:30:28.883Z,23.73
2023-01-18T01:35:30.655Z,21.53
2023-01-18T01:40:32.397Z,20.43
2023-01-18T01:45:34.116Z,21.50
2023-01-18T01:50:39.578Z,17.63
2023-01-18T01:55:42.495Z,17.13
2023-01-18T02:00:44.652Z,17.77
2023-01-18T02:05:50.886Z,16.17
2023-01-18T02:10:52.887Z,18.63
2023-01-18T02:16:06.661Z,18.33
2023-01-18T02:21:21.236Z,17.60
2023-01-18T02:26:49.208Z,17.90
2023-01-18T02:31:56.913Z,19.10
2023-01-18T02:37:12.893Z,17.73
2023-01-18T02:42:37.914Z,22.47
2023-01-18T02:47:42.115Z,17.93
2023-01-18T02:52:47.268Z,17.20
2023-01-18T02:57:48.986Z,17.20
2023-01-18T03:02:53.159Z,17.20
2023-01-18T03:08:06.287Z,17.63
2023-01-18T03:13:25.595Z,14.73
2023-01-18T03:19:01.897Z,14.27
2023-01-18T03:24:07.254Z,13.10
2023-01-18T03:29:29.529Z,13.80
2023-01-18T03:35:08.062Z,10.47
2023-01-18T03:40:22.024Z,13.27
2023-01-18T03:45:39.551Z,11.03
2023-01-18T03:51:00.855Z,15.43
2023-01-18T03:56:09.307Z,12.43
2023-01-18T04:01:11.796Z,12.57
2023-01-18T04:06:13.472Z,13.20
2023-01-18T04:11:15.423Z,14.07
2023-01-18T04:16:17.156Z,10.77
2023-01-18T04:21:18.772Z,14.47
2023-01-18T04:26:20.384Z,12.83
2023-01-18T04:31:22.300Z,11.80
2023-01-18T04:36:23.930Z,11.67
2023-01-18T04:41:25.688Z,14.60
2023-01-18T04:46:27.380Z,13.93
2023-01-18T04:51:31.298Z,11.83
2023-01-18T04:56:32.936Z,18.93
2023-01-18T05:01:35.741Z,16.33
2023-01-18T05:06:37.399Z,20.60
2023-01-18T05:11:38.991Z,23.27
2023-01-18T05:16:40.733Z,22.03
2023-01-18T05:21:42.438Z,22.00
2023-01-18T05:26:44.696Z,21.17
2023-01-18T05:31:46.370Z,22.60
2023-01-18T05:36:48.592Z,23.70
2023-01-18T05:41:50.684Z,24.17
2023-01-18T05:46:52.416Z,26.00
2023-01-18T05:51:54.294Z,25.43
2023-01-18T05:56:56.398Z,28.47
2023-01-18T06:01:58.058Z,26.23
2023-01-18T06:06:59.793Z,23.03
2023-01-18T06:12:01.651Z,26.50
2023-01-18T06:17:03.540Z,28.53
2023-01-18T06:22:05.149Z,27.00
2023-01-18T06:27:07.383Z,29.40
2023-01-18T06:32:09.064Z,30.73
2023-01-18T06:37:10.663Z,29.40
2023-01-18T06:42:12.263Z,31.33
2023-01-18T06:47:18.781Z,30.77
2023-01-18T06:52:20.394Z,34.87
2023-01-18T06:57:22.059Z,34.67
2023-01-18T07:02:23.657Z,32.70
2023-01-18T07:07:25.405Z,34.83
2023-01-18T07:12:27.131Z,33.67
2023-01-18T07:17:28.750Z,31.10
2023-01-18T07:22:30.365Z,34.47
2023-01-18T07:27:31.980Z,30.83
2023-01-18T07:32:33.598Z,30.67
2023-01-18T07:37:36.015Z,31.67
2023-01-18T07:42:37.593Z,35.13
2023-01-18T07:47:40.361Z,31.90
2023-01-18T07:52:42.130Z,29.20
2023-01-18T07:57:43.999Z,30.03
2023-01-18T08:02:50.618Z,26.27
2023-01-18T08:07:53.671Z,25.97
2023-01-18T08:12:55.305Z,26.30
2023-01-18T08:17:57.109Z,27.00
2023-01-18T08:23:00.175Z,27.50
2023-01-18T08:28:03.043Z,28.20
2023-01-18T08:33:05.349Z,26.17
2023-01-18T08:38:06.965Z,24.37
2023-01-18T08:43:10.950Z,24.17
2023-01-18T08:48:12.617Z,24.48
2023-01-18T08:53:14.284Z,25.17
2023-01-18T08:58:15.893Z,21.75
2023-01-18T09:03:22.128Z,22.57
2023-01-18T09:08:23.791Z,23.47
2023-01-18T09:13:25.410Z,24.57
2023-01-18T09:18:27.112Z,20.43
2023-01-18T09:23:28.707Z,20.97
2023-01-18T09:28:30.839Z,18.17
2023-01-18T09:33:37.662Z,19.27
2023-01-18T09:38:41.376Z,19.03
2023-01-18T09:43:50.118Z,19.50
2023-01-18T09:48:59.325Z,22.37
2023-01-18T09:54:23.197Z,23.80
2023-01-18T09:59:34.947Z,21.47
2023-01-18T10:04:41.599Z,21.53
2023-01-18T10:09:49.571Z,21.13
2023-01-18T10:15:04.266Z,21.57
2023-01-18T10:20:43.743Z,18.52
2023-01-18T10:25:55.266Z,20.30
2023-01-18T10:31:24.965Z,18.30
2023-01-18T10:36:33.311Z,19.10
2023-01-18T10:41:38.453Z,21.23
2023-01-18T10:46:40.051Z,18.70
2023-01-18T10:51:41.713Z,16.65
2023-01-18T10:56:44.570Z,14.77
2023-01-18T11:01:57.815Z,17.25
2023-01-18T11:07:04.881Z,18.17
2023-01-18T11:12:34.912Z,14.10
2023-01-18T11:17:36.946Z,13.07
2023-01-18T11:22:55.884Z,13.80
2023-01-18T11:28:02.874Z,14.30
2023-01-18T11:33:04.565Z,15.48
2023-01-18T11:38:07.313Z,17.13
2023-01-18T11:43:25.313Z,11.93
2023-01-18T11:49:16.308Z,10.17
2023-01-18T11:54:28.336Z,11.27
2023-01-18T11:59:37.750Z,14.20
2023-01-18T12:05:13.045Z,14.23
2023-01-18T12:10:23.647Z,14.18
2023-01-18T12:15:57.351Z,12.50
2023-01-18T12:21:12.163Z,14.00
2023-01-18T12:26:49.436Z,14.82
2023-01-18T12:32:14.712Z,14.75
2023-01-18T12:38:07.436Z,14.88
2023-01-18T12:43:24.093Z,15.73
2023-01-18T12:48:31.479Z,13.88
2023-01-18T12:53:45.964Z,15.30
2023-01-18T12:58:58.200Z,15.30
2023-01-18T13:04:08.510Z,16.57
2023-01-18T13:09:16.159Z,16.75
2023-01-18T13:14:28.379Z,18.25
2023-01-18T13:19:42.913Z,14.93
2023-01-18T13:25:24.881Z,13.57
2023-01-18T13:30:28.827Z,13.50
2023-01-18T13:35:33.488Z,13.60
2023-01-18T13:41:10.554Z,14.13
2023-01-18T13:46:15.182Z,14.43
2023-01-18T13:51:36.759Z,12.47
2023-01-18T13:56:39.676Z,13.90
2023-01-18T14:01:44.603Z,11.30
2023-01-18T14:06:47.016Z,12.40
2023-01-18T14:11:55.476Z,11.60
2023-01-18T14:17:12.224Z,10.87
2023-01-18T14:22:22.723Z,12.80
2023-01-18T14:27:28.402Z,10.03
2023-01-18T14:32:42.815Z,12.03
2023-01-18T14:37:44.478Z,10.20
2023-01-18T14:43:11.754Z,8.75
2023-01-18T14:48:19.326Z,9.93
2023-01-18T14:53:34.443Z,8.33
2023-01-18T14:58:50.837Z,8.40
2023-01-18T15:03:55.196Z,8.73
2023-01-18T15:08:57.040Z,9.27
2023-01-18T15:13:59.017Z,8.10
2023-01-18T15:19:01.898Z,7.73
2023-01-18T15:24:16.094Z,8.30
2023-01-18T15:29:26.600Z,10.90
2023-01-18T15:34:31.579Z,10.00
2023-01-18T15:39:33.667Z,12.70
2023-01-18T15:44:35.277Z,11.40
2023-01-18T15:49:36.932Z,13.50
2023-01-18T15:54:38.597Z,12.60
2023-01-18T15:59:41.903Z,13.20
2023-01-18T16:04:43.626Z,12.93
2023-01-18T16:09:45.413Z,11.70
2023-01-18T16:14:52.852Z,14.83
2023-01-18T16:19:57.712Z,16.13
2023-01-18T16:25:09.320Z,17.87
2023-01-18T16:30:21.437Z,19.47
2023-01-18T16:35:23.987Z,18.93
2023-01-18T16:40:25.687Z,19.53
2023-01-18T16:45:33.491Z,21.07
2023-01-18T16:50:35.192Z,21.07
2023-01-18T16:55:37.692Z,22.13
2023-01-18T17:00:45.511Z,22.67
2023-01-18T17:05:47.591Z,23.40
2023-01-18T17:10:51.267Z,22.37
2023-01-18T17:15:53.378Z,21.87
2023-01-18T17:20:55.589Z,22.33
2023-01-18T17:25:58.725Z,20.73
2023-01-18T17:31:00.768Z,20.53
2023-01-18T17:41:22.890Z,18.23
2023-01-18T17:46:28.894Z,15.17
2023-01-18T17:51:30.576Z,16.63
2023-01-18T17:56:33.027Z,13.37
2023-01-18T18:01:34.778Z,14.73
2023-01-18T18:06:40.203Z,14.20
2023-01-18T18:11:44.890Z,15.17
2023-01-18T18:16:46.566Z,15.20
2023-01-18T18:21:48.323Z,12.20
2023-01-18T18:26:50.741Z,13.70
2023-01-18T18:31:52.693Z,10.50
2023-01-18T18:36:54.341Z,17.13
2023-01-18T18:41:56.112Z,18.73
2023-01-18T18:46:57.801Z,31.83
2023-01-18T18:52:00.254Z,32.10
2023-01-18T18:57:03.374Z,36.97
2023-01-18T19:02:05.458Z,34.63
2023-01-18T19:07:07.162Z,29.60
2023-01-18T19:12:09.024Z,25.27
2023-01-18T19:17:15.796Z,30.87
2023-01-18T19:22:23.523Z,28.60
2023-01-18T19:27:25.190Z,26.37
2023-01-18T19:32:26.830Z,24.73
2023-01-18T19:37:28.433Z,28.93
2023-01-18T19:42:30.065Z,25.43
2023-01-18T19:47:31.917Z,26.47
2023-01-18T19:52:33.655Z,30.63
2023-01-18T19:57:35.550Z,33.47
2023-01-18T20:02:41.517Z,42.03
2023-01-18T20:07:43.425Z,33.23
2023-01-18T20:12:45.122Z,32.07
2023-01-18T20:17:46.788Z,31.47
2023-01-18T20:22:49.080Z,33.10
2023-01-18T20:27:50.769Z,46.13
2023-01-18T20:32:52.446Z,31.97
2023-01-18T20:37:54.456Z,37.93
2023-01-18T20:42:56.065Z,32.73
2023-01-18T20:47:58.256Z,33.23
2023-01-18T20:53:00.291Z,32.87
2023-01-18T20:58:02.177Z,29.57
2023-01-18T21:03:04.560Z,35.87
2023-01-18T21:08:06.397Z,30.67
2023-01-18T21:13:09.412Z,31.13
2023-01-18T21:18:11.364Z,32.37
2023-01-18T21:23:13.047Z,31.63
2023-01-18T21:28:14.642Z,34.10
2023-01-18T21:33:16.251Z,35.90
2023-01-18T21:38:17.891Z,37.20
2023-01-18T21:43:39.656Z,34.47
2023-01-18T21:48:41.272Z,35.80
2023-01-18T21:54:01.504Z,35.47
2023-01-18T21:59:03.193Z,38.23
2023-01-18T22:04:29.200Z,32.80
2023-01-18T22:09:31.480Z,32.30
2023-01-18T22:14:33.113Z,30.07
2023-01-18T22:19:34.718Z,36.47
2023-01-18T22:24:36.481Z,39.83
2023-01-18T22:29:38.174Z,34.30
2023-01-18T22:34:39.840Z,38.47
2023-01-18T22:39:41.448Z,41.87
2023-01-18T22:44:43.026Z,33.83
2023-01-18T22:49:44.711Z,38.77
2023-01-18T22:54:46.750Z,33.97
2023-01-18T22:59:48.544Z,31.43
2023-01-18T23:04:50.170Z,34.47
2023-01-18T23:09:52.160Z,39.73
2023-01-18T23:15:12.619Z,36.73
2023-01-18T23:20:14.955Z,37.63
2023-01-18T23:25:16.771Z,34.30
2023-01-18T23:30:18.903Z,34.93
2023-01-18T23:35:20.516Z,36.73
2023-01-18T23:40:40.765Z,30.77
2023-01-18T23:46:02.469Z,28.63
2023-01-18T23:51:23.197Z,27.77
2023-01-18T23:56:25.158Z,29.03
